All Spectrum Aviation - Van Nuys Airport - KVNY

HOME

Van Nuys Tower Recordings

Condor Squadron KVNY Webcam

Visit our Electronics Store

Condor Squadron Webcam - Van Nuys Airport - KVNY
Picture taken: Sat, 06 Feb 2016 21:33:23 -0800
YouTube Channel!    Latest Timelapse Movie    Full Size Image    Regular Size Image    

2016/02/07 04:51 KVNY 070451Z 36015KT 10SM CLR 19/M07 A3018 RMK AO2 SLP215 T01891072

HOME

Van Nuys Tower Recordings

Condor Squadron KVNY Webcam

Visit our Electronics Store